sensor_id;sensor_type;location;lat;lon;timestamp;pressure;altitude;pressure_sealevel;temperature;humidity
29315;BME280;16320;53.954;9.506;2023-07-02T00:02:52;100102.03;;;15.71;100.00
29315;BME280;16320;53.954;9.506;2023-07-02T00:05:58;100100.63;;;15.67;100.00
29315;BME280;16320;53.954;9.506;2023-07-02T00:09:02;100090.41;;;15.62;100.00
29315;BME280;16320;53.954;9.506;2023-07-02T00:12:08;100096.41;;;15.64;100.00
29315;BME280;16320;53.954;9.506;2023-07-02T00:15:13;100080.22;;;15.57;100.00
29315;BME280;16320;53.954;9.506;2023-07-02T00:18:17;100086.94;;;15.62;100.00
29315;BME280;16320;53.954;9.506;2023-07-02T00:21:22;100086.69;;;15.65;100.00
29315;BME280;16320;53.954;9.506;2023-07-02T00:24:32;100084.06;;;15.65;100.00
29315;BME280;16320;53.954;9.506;2023-07-02T00:27:37;100082.59;;;15.61;100.00
29315;BME280;16320;53.954;9.506;2023-07-02T00:30:42;100089.59;;;15.62;100.00
29315;BME280;16320;53.954;9.506;2023-07-02T00:33:50;100085.00;;;15.64;100.00
29315;BME280;16320;53.954;9.506;2023-07-02T00:36:55;100092.00;;;15.65;100.00
29315;BME280;16320;53.954;9.506;2023-07-02T00:39:59;100083.94;;;15.66;100.00
29315;BME280;16320;53.954;9.506;2023-07-02T00:43:03;100087.41;;;15.67;100.00
29315;BME280;16320;53.954;9.506;2023-07-02T00:46:08;100081.41;;;15.65;100.00
29315;BME280;16320;53.954;9.506;2023-07-02T00:49:13;100083.78;;;15.68;100.00
29315;BME280;16320;53.954;9.506;2023-07-02T00:52:18;100088.09;;;15.69;100.00
29315;BME280;16320;53.954;9.506;2023-07-02T00:55:25;100097.84;;;15.68;100.00
29315;BME280;16320;53.954;9.506;2023-07-02T00:58:29;100090.88;;;15.67;100.00
29315;BME280;16320;53.954;9.506;2023-07-02T01:01:34;100085.72;;;15.66;100.00
29315;BME280;16320;53.954;9.506;2023-07-02T01:04:42;100077.78;;;15.66;100.00
29315;BME280;16320;53.954;9.506;2023-07-02T01:07:53;100084.75;;;15.67;100.00
29315;BME280;16320;53.954;9.506;2023-07-02T01:10:59;100069.13;;;15.64;100.00
29315;BME280;16320;53.954;9.506;2023-07-02T01:17:16;100070.56;;;15.68;100.00
29315;BME280;16320;53.954;9.506;2023-07-02T01:20:24;100074.16;;;15.67;100.00
29315;BME280;16320;53.954;9.506;2023-07-02T01:23:30;100074.41;;;15.64;100.00
29315;BME280;16320;53.954;9.506;2023-07-02T01:26:35;100060.22;;;15.65;100.00
29315;BME280;16320;53.954;9.506;2023-07-02T01:29:42;100055.38;;;15.70;100.00
29315;BME280;16320;53.954;9.506;2023-07-02T01:32:48;100060.94;;;15.67;100.00
29315;BME280;16320;53.954;9.506;2023-07-02T01:35:53;100067.91;;;15.68;100.00
29315;BME280;16320;53.954;9.506;2023-07-02T01:38:57;100061.06;;;15.65;100.00
29315;BME280;16320;53.954;9.506;2023-07-02T01:42:12;100084.22;;;15.52;100.00
29315;BME280;16320;53.954;9.506;2023-07-02T01:45:21;100071.66;;;15.33;100.00
29315;BME280;16320;53.954;9.506;2023-07-02T01:48:27;100088.31;;;15.12;100.00
29315;BME280;16320;53.954;9.506;2023-07-02T01:51:32;100085.22;;;14.96;100.00
29315;BME280;16320;53.954;9.506;2023-07-02T01:54:36;100094.88;;;14.86;100.00
29315;BME280;16320;53.954;9.506;2023-07-02T01:57:44;100107.13;;;14.87;100.00
29315;BME280;16320;53.954;9.506;2023-07-02T02:00:48;100108.09;;;14.86;100.00
29315;BME280;16320;53.954;9.506;2023-07-02T02:03:53;100109.03;;;14.85;100.00
29315;BME280;16320;53.954;9.506;2023-07-02T02:06:58;100114.06;;;14.88;100.00
29315;BME280;16320;53.954;9.506;2023-07-02T02:10:04;100122.00;;;14.88;100.00
29315;BME280;16320;53.954;9.506;2023-07-02T02:13:10;100132.69;;;14.86;100.00
29315;BME280;16320;53.954;9.506;2023-07-02T02:16:15;100141.63;;;14.85;100.00
29315;BME280;16320;53.954;9.506;2023-07-02T02:19:20;100146.78;;;14.87;100.00
29315;BME280;16320;53.954;9.506;2023-07-02T02:22:25;100150.25;;;14.87;100.00
29315;BME280;16320;53.954;9.506;2023-07-02T02:25:29;100161.66;;;14.88;100.00
29315;BME280;16320;53.954;9.506;2023-07-02T02:28:35;100158.31;;;14.86;100.00
29315;BME280;16320;53.954;9.506;2023-07-02T02:31:40;100166.13;;;14.87;100.00
29315;BME280;16320;53.954;9.506;2023-07-02T02:34:44;100165.03;;;14.90;100.00
29315;BME280;16320;53.954;9.506;2023-07-02T02:37:49;100177.19;;;14.92;100.00
29315;BME280;16320;53.954;9.506;2023-07-02T02:40:54;100170.06;;;14.93;100.00
29315;BME280;16320;53.954;9.506;2023-07-02T02:43:59;100183.28;;;14.93;100.00
29315;BME280;16320;53.954;9.506;2023-07-02T02:47:03;100190.50;;;14.91;100.00
29315;BME280;16320;53.954;9.506;2023-07-02T02:50:13;100184.50;;;14.89;100.00
29315;BME280;16320;53.954;9.506;2023-07-02T02:53:18;100191.97;;;14.83;100.00
29315;BME280;16320;53.954;9.506;2023-07-02T02:56:22;100194.59;;;14.72;100.00
29315;BME280;16320;53.954;9.506;2023-07-02T02:59:28;100203.13;;;14.64;100.00
29315;BME280;16320;53.954;9.506;2023-07-02T03:02:33;100192.97;;;14.58;100.00
29315;BME280;16320;53.954;9.506;2023-07-02T03:05:38;100201.91;;;14.57;100.00
29315;BME280;16320;53.954;9.506;2023-07-02T03:08:43;100203.91;;;14.54;100.00
29315;BME280;16320;53.954;9.506;2023-07-02T03:11:48;100205.84;;;14.52;100.00
29315;BME280;16320;53.954;9.506;2023-07-02T03:14:53;100201.75;;;14.48;100.00
29315;BME280;16320;53.954;9.506;2023-07-02T03:18:01;100198.97;;;14.49;100.00
29315;BME280;16320;53.954;9.506;2023-07-02T03:21:05;100196.22;;;14.51;100.00
29315;BME280;16320;53.954;9.506;2023-07-02T03:24:10;100207.41;;;14.54;100.00
29315;BME280;16320;53.954;9.506;2023-07-02T03:27:17;100201.03;;;14.57;100.00
29315;BME280;16320;53.954;9.506;2023-07-02T03:30:22;100200.91;;;14.58;100.00
29315;BME280;16320;53.954;9.506;2023-07-02T03:33:27;100205.16;;;14.61;100.00
29315;BME280;16320;53.954;9.506;2023-07-02T03:36:31;100202.53;;;14.61;100.00
29315;BME280;16320;53.954;9.506;2023-07-02T03:39:36;100202.53;;;14.61;100.00
29315;BME280;16320;53.954;9.506;2023-07-02T03:42:40;100209.34;;;14.63;100.00
29315;BME280;16320;53.954;9.506;2023-07-02T03:45:45;100208.06;;;14.69;100.00
29315;BME280;16320;53.954;9.506;2023-07-02T03:48:49;100211.19;;;14.74;100.00
29315;BME280;16320;53.954;9.506;2023-07-02T03:51:54;100213.25;;;14.82;100.00
29315;BME280;16320;53.954;9.506;2023-07-02T03:54:58;100219.34;;;14.82;100.00
29315;BME280;16320;53.954;9.506;2023-07-02T03:58:04;100224.53;;;14.84;100.00
29315;BME280;16320;53.954;9.506;2023-07-02T04:01:09;100224.66;;;14.82;100.00
29315;BME280;16320;53.954;9.506;2023-07-02T04:04:14;100236.91;;;14.83;100.00
29315;BME280;16320;53.954;9.506;2023-07-02T04:07:18;100231.88;;;14.80;100.00
29315;BME280;16320;53.954;9.506;2023-07-02T04:10:23;100241.69;;;14.78;100.00
29315;BME280;16320;53.954;9.506;2023-07-02T04:13:27;100240.03;;;14.77;100.00
29315;BME280;16320;53.954;9.506;2023-07-02T04:16:32;100243.63;;;14.76;100.00
29315;BME280;16320;53.954;9.506;2023-07-02T04:19:37;100246.50;;;14.73;100.00
29315;BME280;16320;53.954;9.506;2023-07-02T04:22:41;100249.75;;;14.66;100.00
29315;BME280;16320;53.954;9.506;2023-07-02T04:25:46;100248.28;;;14.61;100.00
29315;BME280;16320;53.954;9.506;2023-07-02T04:29:10;100246.66;;;14.59;100.00
29315;BME280;16320;53.954;9.506;2023-07-02T04:32:15;100243.78;;;14.51;100.00
29315;BME280;16320;53.954;9.506;2023-07-02T04:35:22;100242.09;;;14.50;100.00
29315;BME280;16320;53.954;9.506;2023-07-02T04:38:27;100235.97;;;14.49;100.00
29315;BME280;16320;53.954;9.506;2023-07-02T04:41:32;100238.47;;;14.51;100.00
29315;BME280;16320;53.954;9.506;2023-07-02T04:44:37;100251.22;;;14.45;100.00
29315;BME280;16320;53.954;9.506;2023-07-02T04:47:46;100256.94;;;14.39;100.00
29315;BME280;16320;53.954;9.506;2023-07-02T04:50:50;100260.53;;;14.27;100.00
29315;BME280;16320;53.954;9.506;2023-07-02T04:53:55;100267.72;;;14.25;100.00
29315;BME280;16320;53.954;9.506;2023-07-02T04:56:59;100263.16;;;14.27;100.00
29315;BME280;16320;53.954;9.506;2023-07-02T05:00:04;100262.34;;;14.26;100.00
29315;BME280;16320;53.954;9.506;2023-07-02T05:03:13;100262.19;;;14.28;100.00
29315;BME280;16320;53.954;9.506;2023-07-02T05:06:17;100271.38;;;14.35;100.00
29315;BME280;16320;53.954;9.506;2023-07-02T05:09:22;100271.59;;;14.32;100.00
29315;BME280;16320;53.954;9.506;2023-07-02T05:12:26;100271.38;;;14.35;100.00
29315;BME280;16320;53.954;9.506;2023-07-02T05:15:32;100282.69;;;14.49;100.00
29315;BME280;16320;53.954;9.506;2023-07-02T05:18:37;100272.72;;;14.52;100.00
29315;BME280;16320;53.954;9.506;2023-07-02T05:21:42;100281.28;;;14.56;100.00
29315;BME280;16320;53.954;9.506;2023-07-02T05:24:50;100286.22;;;14.60;100.00
29315;BME280;16320;53.954;9.506;2023-07-02T05:27:57;100280.75;;;14.51;100.00
29315;BME280;16320;53.954;9.506;2023-07-02T05:31:02;100281.25;;;14.44;100.00
29315;BME280;16320;53.954;9.506;2023-07-02T05:34:06;100277.84;;;14.42;100.00
29315;BME280;16320;53.954;9.506;2023-07-02T05:37:11;100273.31;;;14.44;100.00
29315;BME280;16320;53.954;9.506;2023-07-02T05:40:16;100281.84;;;14.48;100.00
29315;BME280;16320;53.954;9.506;2023-07-02T05:43:21;100282.75;;;14.60;100.00
29315;BME280;16320;53.954;9.506;2023-07-02T05:46:26;100281.47;;;14.66;100.00
29315;BME280;16320;53.954;9.506;2023-07-02T05:49:30;100280.09;;;14.60;100.00
29315;BME280;16320;53.954;9.506;2023-07-02T05:52:35;100284.09;;;14.66;100.00
29315;BME280;16320;53.954;9.506;2023-07-02T05:55:41;100288.78;;;14.73;100.00
29315;BME280;16320;53.954;9.506;2023-07-02T05:58:49;100286.50;;;14.80;100.00
29315;BME280;16320;53.954;9.506;2023-07-02T06:01:56;100289.56;;;14.87;100.00
29315;BME280;16320;53.954;9.506;2023-07-02T06:05:00;100291.25;;;14.99;100.00
29315;BME280;16320;53.954;9.506;2023-07-02T06:08:09;100292.19;;;15.09;100.00
29315;BME280;16320;53.954;9.506;2023-07-02T06:11:14;100291.97;;;15.01;100.00
29315;BME280;16320;53.954;9.506;2023-07-02T06:18:35;100291.97;;;15.01;100.00
29315;BME280;16320;53.954;9.506;2023-07-02T06:21:40;100297.13;;;15.02;100.00
29315;BME280;16320;53.954;9.506;2023-07-02T06:24:45;100296.31;;;15.13;100.00
29315;BME280;16320;53.954;9.506;2023-07-02T06:27:50;100289.69;;;15.19;100.00
29315;BME280;16320;53.954;9.506;2023-07-02T06:30:55;100286.44;;;15.15;100.00
29315;BME280;16320;53.954;9.506;2023-07-02T06:34:00;100292.59;;;15.16;100.00
29315;BME280;16320;53.954;9.506;2023-07-02T06:37:06;100293.41;;;15.05;100.00
29315;BME280;16320;53.954;9.506;2023-07-02T06:40:12;100278.72;;;15.01;100.00
29315;BME280;16320;53.954;9.506;2023-07-02T06:43:16;100261.31;;;15.10;100.00
29315;BME280;16320;53.954;9.506;2023-07-02T06:46:21;100287.41;;;15.03;100.00
29315;BME280;16320;53.954;9.506;2023-07-02T06:49:25;100274.38;;;14.66;100.00
29315;BME280;16320;53.954;9.506;2023-07-02T06:52:30;100267.88;;;14.35;100.00
29315;BME280;16320;53.954;9.506;2023-07-02T06:55:35;100272.75;;;14.17;100.00
29315;BME280;16320;53.954;9.506;2023-07-02T06:58:42;100272.09;;;14.13;100.00
29315;BME280;16320;53.954;9.506;2023-07-02T07:01:47;100277.09;;;14.05;100.00
29315;BME280;16320;53.954;9.506;2023-07-02T07:04:51;100277.91;;;13.94;100.00
29315;BME280;16320;53.954;9.506;2023-07-02T07:08:04;100281.66;;;14.03;100.00
29315;BME280;16320;53.954;9.506;2023-07-02T07:11:12;100279.91;;;14.15;100.00
29315;BME280;16320;53.954;9.506;2023-07-02T07:14:17;100292.06;;;14.17;100.00
29315;BME280;16320;53.954;9.506;2023-07-02T07:17:22;100289.34;;;14.30;100.00
29315;BME280;16320;53.954;9.506;2023-07-02T07:20:27;100295.28;;;14.45;100.00
29315;BME280;16320;53.954;9.506;2023-07-02T07:23:32;100302.84;;;14.38;100.00
29315;BME280;16320;53.954;9.506;2023-07-02T07:26:37;100293.47;;;14.45;100.00
29315;BME280;16320;53.954;9.506;2023-07-02T07:29:42;100311.06;;;14.58;100.00
29315;BME280;16320;53.954;9.506;2023-07-02T07:32:51;100321.09;;;14.66;100.00
29315;BME280;16320;53.954;9.506;2023-07-02T07:35:56;100336.34;;;14.62;100.00
29315;BME280;16320;53.954;9.506;2023-07-02T07:39:01;100331.00;;;14.86;100.00
29315;BME280;16320;53.954;9.506;2023-07-02T07:42:07;100336.16;;;14.88;100.00
29315;BME280;16320;53.954;9.506;2023-07-02T07:45:12;100346.53;;;14.91;100.00
29315;BME280;16320;53.954;9.506;2023-07-02T07:48:17;100344.81;;;14.90;100.00
29315;BME280;16320;53.954;9.506;2023-07-02T07:51:22;100341.31;;;14.78;100.00
29315;BME280;16320;53.954;9.506;2023-07-02T07:54:26;100354.41;;;14.79;100.00
29315;BME280;16320;53.954;9.506;2023-07-02T07:57:31;100350.22;;;14.88;100.00
29315;BME280;16320;53.954;9.506;2023-07-02T08:00:35;100356.59;;;14.86;100.00
29315;BME280;16320;53.954;9.506;2023-07-02T08:03:40;100371.75;;;14.83;100.00
29315;BME280;16320;53.954;9.506;2023-07-02T08:06:45;100367.75;;;14.78;100.00
29315;BME280;16320;53.954;9.506;2023-07-02T08:09:50;100368.25;;;14.59;100.00
29315;BME280;16320;53.954;9.506;2023-07-02T08:12:55;100366.38;;;14.61;100.00
29315;BME280;16320;53.954;9.506;2023-07-02T08:15:59;100346.69;;;14.65;100.00
29315;BME280;16320;53.954;9.506;2023-07-02T08:19:04;100328.41;;;14.62;100.00
29315;BME280;16320;53.954;9.506;2023-07-02T08:22:09;100305.13;;;14.78;100.00
29315;BME280;16320;53.954;9.506;2023-07-02T08:25:13;100283.06;;;14.91;100.00
29315;BME280;16320;53.954;9.506;2023-07-02T08:28:18;100260.22;;;15.12;100.00
29315;BME280;16320;53.954;9.506;2023-07-02T08:31:22;100231.13;;;15.35;100.00
29315;BME280;16320;53.954;9.506;2023-07-02T08:34:28;100214.88;;;15.51;100.00
29315;BME280;16320;53.954;9.506;2023-07-02T08:37:34;100188.94;;;15.66;100.00
29315;BME280;16320;53.954;9.506;2023-07-02T08:40:40;100175.44;;;15.80;100.00
29315;BME280;16320;53.954;9.506;2023-07-02T08:43:45;100136.81;;;15.89;100.00
29315;BME280;16320;53.954;9.506;2023-07-02T08:46:51;100124.06;;;16.04;100.00
29315;BME280;16320;53.954;9.506;2023-07-02T08:49:57;100092.28;;;16.04;100.00
29315;BME280;16320;53.954;9.506;2023-07-02T08:53:01;100091.84;;;15.99;100.00
29315;BME280;16320;53.954;9.506;2023-07-02T08:56:06;100091.91;;;16.08;100.00
29315;BME280;16320;53.954;9.506;2023-07-02T08:59:10;100076.75;;;16.20;100.00
29315;BME280;16320;53.954;9.506;2023-07-02T09:02:15;100072.78;;;16.36;100.00
29315;BME280;16320;53.954;9.506;2023-07-02T09:05:20;100072.16;;;16.53;100.00
29315;BME280;16320;53.954;9.506;2023-07-02T09:08:28;100063.81;;;16.58;100.00
29315;BME280;16320;53.954;9.506;2023-07-02T09:11:34;100065.47;;;16.49;100.00
29315;BME280;16320;53.954;9.506;2023-07-02T09:14:41;100075.72;;;16.42;100.00
29315;BME280;16320;53.954;9.506;2023-07-02T09:18:18;100088.34;;;16.50;100.00
29315;BME280;16320;53.954;9.506;2023-07-02T09:21:22;100075.69;;;16.63;100.00
29315;BME280;16320;53.954;9.506;2023-07-02T09:24:29;100094.28;;;16.83;100.00
29315;BME280;16320;53.954;9.506;2023-07-02T09:27:41;100100.53;;;16.93;100.00
29315;BME280;16320;53.954;9.506;2023-07-02T09:34:02;100084.09;;;17.19;100.00
29315;BME280;16320;53.954;9.506;2023-07-02T09:37:07;100084.94;;;17.29;100.00
29315;BME280;16320;53.954;9.506;2023-07-02T09:40:12;100072.91;;;17.35;100.00
29315;BME280;16320;53.954;9.506;2023-07-02T09:43:17;100061.34;;;17.46;100.00
29315;BME280;16320;53.954;9.506;2023-07-02T09:46:23;100070.84;;;17.58;100.00
29315;BME280;16320;53.954;9.506;2023-07-02T09:49:31;100083.13;;;17.59;100.00
29315;BME280;16320;53.954;9.506;2023-07-02T09:52:36;100082.16;;;17.41;100.00
29315;BME280;16320;53.954;9.506;2023-07-02T09:55:42;100073.50;;;17.19;100.00
29315;BME280;16320;53.954;9.506;2023-07-02T09:58:47;100081.56;;;17.08;100.00
29315;BME280;16320;53.954;9.506;2023-07-02T10:01:52;100080.72;;;17.07;100.00
29315;BME280;16320;53.954;9.506;2023-07-02T10:04:57;100087.44;;;17.21;100.00
29315;BME280;16320;53.954;9.506;2023-07-02T10:08:13;100102.81;;;17.27;100.00
29315;BME280;16320;53.954;9.506;2023-07-02T10:11:18;100103.94;;;17.25;100.00
29315;BME280;16320;53.954;9.506;2023-07-02T10:14:23;100105.63;;;17.26;100.00
29315;BME280;16320;53.954;9.506;2023-07-02T10:17:35;100101.28;;;17.34;100.00
29315;BME280;16320;53.954;9.506;2023-07-02T10:20:41;100108.69;;;17.50;100.00
29315;BME280;16320;53.954;9.506;2023-07-02T10:23:46;100088.41;;;17.69;100.00
29315;BME280;16320;53.954;9.506;2023-07-02T10:26:58;100081.84;;;17.83;100.00
29315;BME280;16320;53.954;9.506;2023-07-02T10:30:07;100102.97;;;17.74;100.00
29315;BME280;16320;53.954;9.506;2023-07-02T10:33:14;100117.63;;;17.39;100.00
29315;BME280;16320;53.954;9.506;2023-07-02T10:36:20;100131.44;;;17.24;100.00
29315;BME280;16320;53.954;9.506;2023-07-02T10:39:25;100128.91;;;17.22;100.00
29315;BME280;16320;53.954;9.506;2023-07-02T10:42:30;100143.91;;;17.52;100.00
29315;BME280;16320;53.954;9.506;2023-07-02T10:45:37;100112.88;;;17.53;100.00
29315;BME280;16320;53.954;9.506;2023-07-02T10:48:54;100109.66;;;17.39;100.00
29315;BME280;16320;53.954;9.506;2023-07-02T10:52:03;100112.06;;;17.62;100.00
29315;BME280;16320;53.954;9.506;2023-07-02T10:55:24;100118.50;;;17.50;100.00
29315;BME280;16320;53.954;9.506;2023-07-02T10:58:29;100145.31;;;17.47;100.00
29315;BME280;16320;53.954;9.506;2023-07-02T11:01:33;100133.31;;;18.01;100.00
29315;BME280;16320;53.954;9.506;2023-07-02T11:04:38;100115.22;;;18.72;100.00
29315;BME280;16320;53.954;9.506;2023-07-02T11:07:43;100112.75;;;19.16;100.00
29315;BME280;16320;53.954;9.506;2023-07-02T11:10:48;100106.47;;;19.71;100.00
29315;BME280;16320;53.954;9.506;2023-07-02T11:13:52;100106.25;;;19.82;100.00
29315;BME280;16320;53.954;9.506;2023-07-02T11:17:05;100107.25;;;20.07;100.00
29315;BME280;16320;53.954;9.506;2023-07-02T11:20:12;100105.25;;;20.09;100.00
29315;BME280;16320;53.954;9.506;2023-07-02T11:23:23;100105.00;;;19.58;100.00
29315;BME280;16320;53.954;9.506;2023-07-02T11:26:39;100122.94;;;19.02;100.00
29315;BME280;16320;53.954;9.506;2023-07-02T11:29:44;100120.75;;;19.34;100.00
29315;BME280;16320;53.954;9.506;2023-07-02T11:32:50;100113.50;;;19.98;100.00
29315;BME280;16320;53.954;9.506;2023-07-02T11:35:56;100120.22;;;20.28;100.00
29315;BME280;16320;53.954;9.506;2023-07-02T11:39:00;100118.13;;;20.14;100.00
29315;BME280;16320;53.954;9.506;2023-07-02T11:42:05;100127.44;;;20.36;100.00
29315;BME280;16320;53.954;9.506;2023-07-02T11:45:10;100125.69;;;20.53;100.00
29315;BME280;16320;53.954;9.506;2023-07-02T11:48:15;100122.84;;;20.20;100.00
29315;BME280;16320;53.954;9.506;2023-07-02T11:51:19;100139.88;;;19.83;100.00
29315;BME280;16320;53.954;9.506;2023-07-02T11:54:23;100144.88;;;19.50;100.00
29315;BME280;16320;53.954;9.506;2023-07-02T11:57:28;100161.34;;;19.18;100.00
29315;BME280;16320;53.954;9.506;2023-07-02T12:00:33;100155.25;;;19.71;100.00
29315;BME280;16320;53.954;9.506;2023-07-02T12:03:38;100171.75;;;20.11;100.00
29315;BME280;16320;53.954;9.506;2023-07-02T12:06:43;100154.81;;;20.20;100.00
29315;BME280;16320;53.954;9.506;2023-07-02T12:09:47;100166.06;;;20.32;100.00
29315;BME280;16320;53.954;9.506;2023-07-02T12:12:51;100156.78;;;20.36;100.00
29315;BME280;16320;53.954;9.506;2023-07-02T12:15:56;100166.28;;;19.94;100.00
29315;BME280;16320;53.954;9.506;2023-07-02T12:19:00;100179.13;;;19.45;100.00
29315;BME280;16320;53.954;9.506;2023-07-02T12:22:05;100172.47;;;19.31;100.00
29315;BME280;16320;53.954;9.506;2023-07-02T12:25:10;100185.75;;;19.13;100.00
29315;BME280;16320;53.954;9.506;2023-07-02T12:28:14;100189.97;;;18.69;100.00
29315;BME280;16320;53.954;9.506;2023-07-02T12:31:19;100191.44;;;18.34;100.00
29315;BME280;16320;53.954;9.506;2023-07-02T12:34:23;100205.97;;;18.59;100.00
29315;BME280;16320;53.954;9.506;2023-07-02T12:37:28;100192.75;;;18.87;100.00
29315;BME280;16320;53.954;9.506;2023-07-02T12:40:32;100188.59;;;19.02;100.00
29315;BME280;16320;53.954;9.506;2023-07-02T12:43:36;100194.41;;;19.43;100.00
29315;BME280;16320;53.954;9.506;2023-07-02T12:46:41;100191.69;;;19.25;100.00
29315;BME280;16320;53.954;9.506;2023-07-02T12:49:46;100197.84;;;19.53;100.00
29315;BME280;16320;53.954;9.506;2023-07-02T12:52:50;100207.88;;;19.87;100.00
29315;BME280;16320;53.954;9.506;2023-07-02T12:55:55;100219.06;;;20.09;100.00
29315;BME280;16320;53.954;9.506;2023-07-02T12:59:02;100201.53;;;20.06;100.00
29315;BME280;16320;53.954;9.506;2023-07-02T13:02:06;100200.50;;;19.81;100.00
29315;BME280;16320;53.954;9.506;2023-07-02T13:05:12;100206.31;;;19.67;100.00
29315;BME280;16320;53.954;9.506;2023-07-02T13:08:17;100201.28;;;19.64;100.00
29315;BME280;16320;53.954;9.506;2023-07-02T13:11:22;100204.03;;;19.72;100.00
29315;BME280;16320;53.954;9.506;2023-07-02T13:14:26;100205.94;;;19.62;100.00
29315;BME280;16320;53.954;9.506;2023-07-02T13:17:31;100213.16;;;19.51;100.00
29315;BME280;16320;53.954;9.506;2023-07-02T13:20:35;100208.50;;;19.53;100.00
29315;BME280;16320;53.954;9.506;2023-07-02T13:23:39;100213.38;;;19.58;100.00
29315;BME280;16320;53.954;9.506;2023-07-02T13:26:44;100215.28;;;19.66;100.00
29315;BME280;16320;53.954;9.506;2023-07-02T13:29:49;100218.34;;;19.53;100.00
29315;BME280;16320;53.954;9.506;2023-07-02T13:32:54;100223.59;;;19.35;100.00
29315;BME280;16320;53.954;9.506;2023-07-02T13:35:58;100228.72;;;19.18;100.00
29315;BME280;16320;53.954;9.506;2023-07-02T13:39:02;100228.22;;;19.05;100.00
29315;BME280;16320;53.954;9.506;2023-07-02T13:42:07;100227.84;;;19.00;100.00
29315;BME280;16320;53.954;9.506;2023-07-02T13:45:12;100232.75;;;18.95;100.00
29315;BME280;16320;53.954;9.506;2023-07-02T13:48:16;100231.78;;;18.86;100.00
29315;BME280;16320;53.954;9.506;2023-07-02T13:51:21;100234.16;;;18.89;100.00
29315;BME280;16320;53.954;9.506;2023-07-02T13:54:25;100245.81;;;18.78;100.00
29315;BME280;16320;53.954;9.506;2023-07-02T13:57:29;100245.56;;;18.62;100.00
29315;BME280;16320;53.954;9.506;2023-07-02T14:00:34;100241.78;;;18.64;100.00
29315;BME280;16320;53.954;9.506;2023-07-02T14:03:38;100251.28;;;18.67;100.00
29315;BME280;16320;53.954;9.506;2023-07-02T14:06:44;100245.13;;;18.66;100.00
29315;BME280;16320;53.954;9.506;2023-07-02T14:09:48;100260.25;;;18.66;100.00
29315;BME280;16320;53.954;9.506;2023-07-02T14:12:53;100254.41;;;18.53;100.00
29315;BME280;16320;53.954;9.506;2023-07-02T14:15:59;100262.94;;;18.56;100.00
29315;BME280;16320;53.954;9.506;2023-07-02T14:19:04;100270.63;;;18.50;100.00
29315;BME280;16320;53.954;9.506;2023-07-02T14:22:09;100273.16;;;18.41;100.00
29315;BME280;16320;53.954;9.506;2023-07-02T14:25:13;100271.47;;;18.40;100.00
29315;BME280;16320;53.954;9.506;2023-07-02T14:28:28;100273.16;;;18.32;100.00
29315;BME280;16320;53.954;9.506;2023-07-02T14:31:33;100285.47;;;18.23;100.00
29315;BME280;16320;53.954;9.506;2023-07-02T14:34:38;100271.34;;;18.13;100.00
29315;BME280;16320;53.954;9.506;2023-07-02T14:37:42;100277.22;;;18.16;100.00
29315;BME280;16320;53.954;9.506;2023-07-02T14:40:50;100296.09;;;18.23;100.00
29315;BME280;16320;53.954;9.506;2023-07-02T14:43:55;100279.72;;;18.27;100.00
29315;BME280;16320;53.954;9.506;2023-07-02T14:46:59;100281.28;;;18.30;100.00
29315;BME280;16320;53.954;9.506;2023-07-02T14:50:05;100272.63;;;18.38;100.00
29315;BME280;16320;53.954;9.506;2023-07-02T14:53:10;100260.69;;;18.42;100.00
29315;BME280;16320;53.954;9.506;2023-07-02T14:56:17;100280.59;;;18.47;100.00
29315;BME280;16320;53.954;9.506;2023-07-02T14:59:22;100275.13;;;18.39;100.00
29315;BME280;16320;53.954;9.506;2023-07-02T15:02:27;100280.00;;;18.34;100.00
29315;BME280;16320;53.954;9.506;2023-07-02T15:05:32;100287.72;;;18.27;100.00
29315;BME280;16320;53.954;9.506;2023-07-02T15:08:36;100279.88;;;18.26;100.00
29315;BME280;16320;53.954;9.506;2023-07-02T15:11:41;100294.84;;;18.17;100.00
29315;BME280;16320;53.954;9.506;2023-07-02T15:14:45;100302.28;;;18.23;100.00
29315;BME280;16320;53.954;9.506;2023-07-02T15:17:50;100294.72;;;18.28;100.00
29315;BME280;16320;53.954;9.506;2023-07-02T15:20:57;100300.03;;;18.19;100.00
29315;BME280;16320;53.954;9.506;2023-07-02T15:24:02;100290.75;;;18.03;100.00
29315;BME280;16320;53.954;9.506;2023-07-02T15:27:06;100297.91;;;17.93;100.00
29315;BME280;16320;53.954;9.506;2023-07-02T15:30:15;100298.03;;;17.91;100.00
29315;BME280;16320;53.954;9.506;2023-07-02T15:33:21;100295.94;;;17.95;100.00
29315;BME280;16320;53.954;9.506;2023-07-02T15:36:29;100305.59;;;17.96;100.00
29315;BME280;16320;53.954;9.506;2023-07-02T15:39:39;100314.25;;;17.88;100.00
29315;BME280;16320;53.954;9.506;2023-07-02T15:42:43;100305.81;;;17.83;100.00
29315;BME280;16320;53.954;9.506;2023-07-02T15:45:47;100298.78;;;17.72;100.00
29315;BME280;16320;53.954;9.506;2023-07-02T15:48:57;100299.91;;;17.70;100.00
29315;BME280;16320;53.954;9.506;2023-07-02T15:52:07;100298.22;;;17.69;100.00
29315;BME280;16320;53.954;9.506;2023-07-02T15:55:12;100305.25;;;17.80;100.00
29315;BME280;16320;53.954;9.506;2023-07-02T15:58:18;100306.63;;;17.84;100.00
29315;BME280;16320;53.954;9.506;2023-07-02T16:01:22;100307.63;;;17.83;100.00
29315;BME280;16320;53.954;9.506;2023-07-02T16:04:27;100308.59;;;17.82;100.00
29315;BME280;16320;53.954;9.506;2023-07-02T16:07:39;100301.31;;;17.84;100.00
29315;BME280;16320;53.954;9.506;2023-07-02T16:10:44;100305.94;;;17.82;100.00